createdAt,value
2022-12-18T00:02:08.720Z,102668.53
2022-12-18T00:04:46.750Z,102919.75
2022-12-18T00:08:09.383Z,102675.13
2022-12-18T00:11:07.084Z,102917.13
2022-12-18T00:13:47.966Z,102682.38
2022-12-18T00:20:05.425Z,102873.47
2022-12-18T00:22:43.642Z,102910.75
2022-12-18T00:25:24.808Z,102925.41
2022-12-18T00:28:13.220Z,102929.41
2022-12-18T00:31:22.660Z,102828.53
2022-12-18T00:36:59.456Z,102776.63
2022-12-18T00:42:56.015Z,102932.63
2022-12-18T00:45:33.461Z,102931.09
2022-12-18T00:48:17.433Z,102927.63
2022-12-18T00:51:27.861Z,102678.91
2022-12-18T00:53:58.696Z,102740.66
2022-12-18T01:00:00.575Z,102657.31
2022-12-18T01:02:37.062Z,102925.47
2022-12-18T01:05:09.920Z,102868.00
2022-12-18T01:07:41.379Z,102930.72
2022-12-18T01:10:37.013Z,102797.56
2022-12-18T01:13:26.772Z,102889.88
2022-12-18T01:18:57.164Z,102698.06
2022-12-18T01:21:29.133Z,102965.56
2022-12-18T01:27:10.688Z,102690.69
2022-12-18T01:29:55.780Z,102906.06
2022-12-18T01:32:39.552Z,102896.25
2022-12-18T01:35:09.782Z,102669.00
2022-12-18T01:37:39.399Z,102946.38
2022-12-18T01:40:20.106Z,102896.78
2022-12-18T01:43:03.469Z,102893.69
2022-12-18T01:45:32.287Z,102678.75
2022-12-18T01:48:08.954Z,102950.13
2022-12-18T01:50:41.132Z,102773.38
2022-12-18T01:53:25.810Z,102901.72
2022-12-18T01:58:48.458Z,102759.56
2022-12-18T02:01:17.271Z,102891.63
2022-12-18T02:03:47.384Z,102888.69
2022-12-18T02:06:30.687Z,102867.25
2022-12-18T02:09:39.826Z,102769.78
2022-12-18T02:12:18.269Z,102724.03
2022-12-18T02:15:00.037Z,102976.06
2022-12-18T02:17:37.802Z,102866.78
2022-12-18T02:20:22.720Z,102876.41
2022-12-18T02:23:17.577Z,102983.41
2022-12-18T02:26:22.407Z,102897.75
2022-12-18T02:28:55.929Z,102906.88
2022-12-18T02:31:28.290Z,102976.22
2022-12-18T02:33:57.588Z,102804.19
2022-12-18T02:36:40.488Z,102702.34
2022-12-18T02:39:13.292Z,102832.84
2022-12-18T02:41:53.937Z,102913.59
2022-12-18T02:44:27.681Z,102963.63
2022-12-18T02:50:00.445Z,102962.31
2022-12-18T02:52:42.646Z,102729.41
2022-12-18T02:55:28.587Z,102911.22
2022-12-18T02:58:09.425Z,102953.69
2022-12-18T03:00:42.635Z,102802.41
2022-12-18T03:03:18.603Z,102949.09
2022-12-18T03:06:01.558Z,102875.09
2022-12-18T03:08:42.064Z,102921.03
2022-12-18T03:11:17.194Z,102692.00
2022-12-18T03:13:50.482Z,102744.72
2022-12-18T03:16:24.753Z,102882.28
2022-12-18T03:19:06.025Z,102889.34
2022-12-18T03:21:41.286Z,102731.81
2022-12-18T03:24:16.936Z,102661.94
2022-12-18T03:26:51.657Z,102744.25
2022-12-18T03:29:26.247Z,102943.84
2022-12-18T03:32:06.599Z,102905.56
2022-12-18T03:34:39.745Z,102972.44
2022-12-18T03:37:08.030Z,102944.31
2022-12-18T03:39:36.378Z,102654.84
2022-12-18T03:42:11.566Z,102946.72
2022-12-18T03:44:46.175Z,102809.13
2022-12-18T03:47:20.995Z,102932.56
2022-12-18T03:49:52.649Z,102882.03
2022-12-18T03:52:25.275Z,102926.78
2022-12-18T03:54:58.878Z,102888.88
2022-12-18T03:57:32.013Z,102777.34
2022-12-18T04:00:09.184Z,102946.59
2022-12-18T04:02:42.192Z,102936.38
2022-12-18T04:05:11.996Z,102693.88
2022-12-18T04:07:40.321Z,102918.88
2022-12-18T04:10:10.452Z,102713.06
2022-12-18T04:12:38.674Z,102892.09
2022-12-18T04:15:12.254Z,102934.38
2022-12-18T04:17:39.857Z,102937.84
2022-12-18T04:20:10.425Z,102687.50
2022-12-18T04:22:37.738Z,102760.00
2022-12-18T04:25:05.498Z,102914.78
2022-12-18T04:27:35.512Z,102866.75
2022-12-18T04:30:05.577Z,102950.91
2022-12-18T04:32:37.118Z,102709.66
2022-12-18T04:35:06.311Z,102864.41
2022-12-18T04:37:37.549Z,102914.34
2022-12-18T04:40:05.349Z,102844.81
2022-12-18T04:42:35.328Z,102924.63
2022-12-18T04:45:02.397Z,102936.63
2022-12-18T04:47:42.067Z,102934.84
2022-12-18T04:50:09.702Z,102942.00
2022-12-18T04:52:42.889Z,102940.47
2022-12-18T04:55:10.038Z,102869.66
2022-12-18T04:57:38.507Z,102635.59
2022-12-18T05:00:06.660Z,102908.50
2022-12-18T05:02:38.390Z,102836.78
2022-12-18T05:05:06.802Z,102950.78
2022-12-18T05:07:35.221Z,102670.53
2022-12-18T05:10:04.465Z,102781.81
2022-12-18T05:12:33.267Z,102910.41
2022-12-18T05:15:00.245Z,102916.28
2022-12-18T05:17:27.082Z,102753.44
2022-12-18T05:19:55.592Z,102822.88
2022-12-18T05:22:22.892Z,102735.69
2022-12-18T05:24:50.247Z,102946.88
2022-12-18T05:27:17.293Z,102795.44
2022-12-18T05:29:44.415Z,102946.41
2022-12-18T05:32:13.476Z,102959.09
2022-12-18T05:34:40.355Z,102973.56
2022-12-18T05:37:10.666Z,102979.25
2022-12-18T05:39:39.296Z,102761.44
2022-12-18T05:42:09.736Z,102939.59
2022-12-18T05:44:36.743Z,102980.16
2022-12-18T05:47:03.947Z,102978.00
2022-12-18T05:49:31.292Z,102837.75
2022-12-18T05:51:58.069Z,102917.69
2022-12-18T05:54:28.108Z,102988.63
2022-12-18T05:56:55.233Z,102766.13
2022-12-18T05:59:22.020Z,102757.75
2022-12-18T06:01:49.425Z,102983.91
2022-12-18T06:04:16.377Z,102923.00
2022-12-18T06:06:43.765Z,102837.91
2022-12-18T06:09:17.389Z,103009.63
2022-12-18T06:11:45.694Z,102843.69
2022-12-18T06:14:12.677Z,102968.56
2022-12-18T06:16:39.641Z,102755.72
2022-12-18T06:19:14.800Z,102858.00
2022-12-18T06:21:41.594Z,102936.22
2022-12-18T06:24:08.725Z,102935.03
2022-12-18T06:26:38.453Z,102794.78
2022-12-18T06:29:07.032Z,102813.81
2022-12-18T06:31:43.592Z,102885.09
2022-12-18T06:34:11.734Z,102845.13
2022-12-18T06:36:38.508Z,102907.00
2022-12-18T06:39:08.200Z,102883.56
2022-12-18T06:41:36.231Z,102899.00
2022-12-18T06:44:09.847Z,102976.75
2022-12-18T06:46:37.994Z,102938.16
2022-12-18T06:49:06.663Z,102943.22
2022-12-18T06:51:33.515Z,102820.16
2022-12-18T06:54:03.533Z,102959.53
2022-12-18T06:56:30.703Z,102819.81
2022-12-18T06:58:57.895Z,102860.13
2022-12-18T07:01:26.380Z,102762.19
2022-12-18T07:03:54.352Z,102916.69
2022-12-18T07:06:26.168Z,102856.06
2022-12-18T07:08:54.443Z,102696.16
2022-12-18T07:11:22.898Z,102881.78
2022-12-18T07:13:54.570Z,102695.09
2022-12-18T07:16:25.734Z,102635.34
2022-12-18T07:18:57.484Z,102803.25
2022-12-18T07:21:25.679Z,102818.81
2022-12-18T07:23:52.994Z,102838.22
2022-12-18T07:26:24.747Z,102708.50
2022-12-18T07:28:55.858Z,102752.16
2022-12-18T07:31:23.047Z,102751.09
2022-12-18T07:33:51.269Z,102799.66
2022-12-18T07:36:20.622Z,102708.59
2022-12-18T07:38:51.154Z,102874.44
2022-12-18T07:41:18.508Z,102808.47
2022-12-18T07:43:46.008Z,102794.38
2022-12-18T07:46:16.347Z,102830.88
2022-12-18T07:48:43.672Z,102928.38
2022-12-18T07:51:16.675Z,102669.72
2022-12-18T07:53:45.266Z,102696.50
2022-12-18T07:56:31.452Z,102893.88
2022-12-18T07:58:59.074Z,102843.75
2022-12-18T08:01:35.078Z,102865.53
2022-12-18T08:04:02.421Z,102686.56
2022-12-18T08:06:36.779Z,102745.84
2022-12-18T08:09:05.973Z,102702.84
2022-12-18T08:11:36.857Z,102686.41
2022-12-18T08:14:06.402Z,102911.53
2022-12-18T08:16:41.883Z,102787.50
2022-12-18T08:22:29.804Z,102766.50
2022-12-18T08:25:35.183Z,102647.94
2022-12-18T08:28:14.401Z,102757.69
2022-12-18T08:30:48.362Z,102716.94
2022-12-18T08:36:33.428Z,102746.31
2022-12-18T08:39:00.511Z,102818.84
2022-12-18T08:41:31.386Z,102697.41
2022-12-18T08:44:01.329Z,102929.81
2022-12-18T08:46:38.736Z,102680.97
2022-12-18T08:49:07.526Z,102920.31
2022-12-18T08:51:36.704Z,102756.00
2022-12-18T08:54:04.232Z,102711.22
2022-12-18T08:56:35.235Z,102662.31
2022-12-18T08:59:03.344Z,102812.81
2022-12-18T09:01:31.037Z,102905.84
2022-12-18T09:03:58.788Z,102897.53
2022-12-18T09:06:26.734Z,102914.44
2022-12-18T09:08:53.894Z,102872.69
2022-12-18T09:11:23.857Z,102893.75
2022-12-18T09:13:53.198Z,102912.22
2022-12-18T09:16:22.524Z,102903.81
2022-12-18T09:18:51.805Z,102904.25
2022-12-18T09:21:20.925Z,102906.84
2022-12-18T09:23:50.826Z,102908.84
2022-12-18T09:26:17.890Z,102861.50
2022-12-18T09:28:46.890Z,102881.94
2022-12-18T09:31:15.298Z,102921.81
2022-12-18T09:33:42.464Z,102887.25
2022-12-18T09:36:12.426Z,102903.25
2022-12-18T09:38:39.898Z,102914.66
2022-12-18T09:41:27.112Z,102915.56
2022-12-18T09:43:58.498Z,102913.22
2022-12-18T09:46:31.569Z,102919.56
2022-12-18T09:49:03.479Z,102903.06
2022-12-18T09:51:36.506Z,102890.28
2022-12-18T09:54:08.540Z,102897.53
2022-12-18T09:56:38.580Z,102903.56
2022-12-18T09:59:06.095Z,102898.13
2022-12-18T10:01:41.740Z,102765.72
2022-12-18T10:04:11.325Z,102871.19
2022-12-18T10:06:43.991Z,102864.69
2022-12-18T10:09:21.757Z,102856.88
2022-12-18T10:11:55.883Z,102859.13
2022-12-18T10:14:30.524Z,102837.16
2022-12-18T10:17:03.774Z,102848.66
2022-12-18T10:19:40.657Z,102839.59
2022-12-18T10:22:16.892Z,102839.34
2022-12-18T10:24:51.503Z,102842.69
2022-12-18T10:27:22.895Z,102829.31
2022-12-18T10:29:49.919Z,102808.44
2022-12-18T10:32:20.845Z,102814.59
2022-12-18T10:34:47.855Z,102801.34
2022-12-18T10:37:18.488Z,102777.59
2022-12-18T10:39:45.872Z,102797.72
2022-12-18T10:42:17.927Z,102823.38
2022-12-18T10:44:45.004Z,102809.16
2022-12-18T10:47:17.337Z,102823.53
2022-12-18T10:49:50.564Z,102822.69
2022-12-18T10:52:20.583Z,102831.06
2022-12-18T10:54:50.882Z,102833.88
2022-12-18T10:57:36.233Z,102798.28
2022-12-18T11:00:22.901Z,102806.94
2022-12-18T11:02:50.312Z,102790.47
2022-12-18T11:05:30.390Z,102799.53
2022-12-18T11:07:59.044Z,102788.38
2022-12-18T11:10:30.510Z,102659.53
2022-12-18T11:13:09.466Z,102774.72
2022-12-18T11:15:36.218Z,102776.66
2022-12-18T11:18:03.295Z,102620.09
2022-12-18T11:20:36.288Z,102794.78
2022-12-18T11:23:05.975Z,102757.41
2022-12-18T11:25:35.691Z,102792.28
2022-12-18T11:28:06.823Z,102738.44
2022-12-18T11:30:35.625Z,102773.03
2022-12-18T11:33:08.453Z,102766.84
2022-12-18T11:35:51.236Z,102765.47
2022-12-18T11:38:23.423Z,102761.56
2022-12-18T11:40:56.112Z,102769.94
2022-12-18T11:43:29.817Z,102741.75
2022-12-18T11:46:03.611Z,102749.00
2022-12-18T11:48:34.987Z,102741.44
2022-12-18T11:51:09.486Z,102735.59
2022-12-18T11:53:36.232Z,102749.38
2022-12-18T11:56:14.111Z,102740.28
2022-12-18T11:58:48.471Z,102722.56
2022-12-18T12:01:41.979Z,102711.94
2022-12-18T12:04:29.720Z,102529.75
2022-12-18T12:07:07.981Z,102532.81
2022-12-18T12:09:40.506Z,102561.50
2022-12-18T12:15:35.266Z,102637.06
2022-12-18T12:18:11.577Z,102518.94
2022-12-18T12:20:50.726Z,102504.78
2022-12-18T12:23:30.013Z,102577.72
2022-12-18T12:26:04.218Z,102662.59
2022-12-18T12:28:50.329Z,102500.44
2022-12-18T12:31:33.155Z,102499.72
2022-12-18T12:34:09.094Z,102635.31
2022-12-18T12:36:42.392Z,102613.47
2022-12-18T12:39:16.888Z,102414.44
2022-12-18T12:41:49.800Z,102428.22
2022-12-18T12:44:21.398Z,102391.66
2022-12-18T12:46:51.237Z,102545.31
2022-12-18T12:49:22.191Z,102537.47
2022-12-18T12:51:58.100Z,102561.16
2022-12-18T12:54:38.885Z,102615.13
2022-12-18T12:57:28.831Z,102538.66
2022-12-18T13:00:44.704Z,102556.06
2022-12-18T13:03:29.260Z,102470.66
2022-12-18T13:06:10.388Z,102626.81
2022-12-18T13:09:00.260Z,102572.31
2022-12-18T13:11:43.053Z,102591.06
2022-12-18T13:14:30.400Z,102587.19
2022-12-18T13:17:44.738Z,102603.72
2022-12-18T13:20:19.954Z,102418.94
2022-12-18T13:23:41.826Z,102394.03
2022-12-18T13:26:41.391Z,102587.72
2022-12-18T13:29:49.975Z,102334.19
2022-12-18T13:35:40.312Z,102587.13
2022-12-18T13:38:22.111Z,102551.22
2022-12-18T13:41:23.014Z,102460.03
2022-12-18T13:43:55.352Z,102425.59
2022-12-18T13:46:29.302Z,102489.56
2022-12-18T13:52:44.626Z,102417.50
2022-12-18T13:55:25.153Z,102587.34
2022-12-18T14:01:33.861Z,102566.91
2022-12-18T14:04:38.149Z,102563.94
2022-12-18T14:07:49.222Z,102556.81
2022-12-18T14:11:06.419Z,102346.13
2022-12-18T14:35:09.816Z,102528.59
2022-12-18T14:41:22.872Z,102399.59
2022-12-18T14:47:39.083Z,102484.09
2022-12-18T14:50:17.581Z,102475.56
2022-12-18T14:52:47.505Z,102356.31
2022-12-18T14:55:17.118Z,102331.09
2022-12-18T14:57:51.186Z,102364.59
2022-12-18T15:00:22.276Z,102360.03
2022-12-18T15:02:53.920Z,102467.19
2022-12-18T15:05:25.813Z,102429.13
2022-12-18T15:07:54.160Z,102371.50
2022-12-18T15:10:22.482Z,102357.09
2022-12-18T15:12:51.004Z,102425.38
2022-12-18T15:15:47.566Z,102430.06
2022-12-18T15:18:16.688Z,102415.72
2022-12-18T15:20:45.752Z,102383.09
2022-12-18T15:23:19.652Z,102386.16
2022-12-18T15:25:47.458Z,102323.84
2022-12-18T15:28:22.888Z,102436.91
2022-12-18T15:31:02.813Z,102427.22
2022-12-18T15:33:33.044Z,102299.28
2022-12-18T15:36:00.508Z,102417.94
2022-12-18T15:38:28.120Z,102220.44
2022-12-18T15:40:55.189Z,102239.94
2022-12-18T15:43:23.658Z,102410.31
2022-12-18T15:45:51.012Z,102405.00
2022-12-18T15:48:22.765Z,102228.66
2022-12-18T15:50:50.919Z,102367.16
2022-12-18T15:53:18.443Z,102272.28
2022-12-18T15:55:46.635Z,102204.03
2022-12-18T16:01:24.106Z,102357.84
2022-12-18T16:08:01.021Z,102341.41
2022-12-18T16:11:23.006Z,102219.44
2022-12-18T16:14:18.369Z,102309.72
2022-12-18T16:16:47.384Z,102173.56
2022-12-18T16:19:14.119Z,102343.59
2022-12-18T16:21:42.771Z,102283.41
2022-12-18T16:24:15.784Z,102160.03
2022-12-18T16:26:42.930Z,102275.91
2022-12-18T16:29:10.034Z,102253.44
2022-12-18T16:31:37.694Z,102296.50
2022-12-18T16:34:22.834Z,102353.25
2022-12-18T16:36:54.040Z,102291.97
2022-12-18T16:39:22.998Z,102197.78
2022-12-18T16:41:54.100Z,102335.53
2022-12-18T16:44:25.740Z,102322.22
2022-12-18T16:46:54.137Z,102125.75
2022-12-18T16:49:21.126Z,102124.84
2022-12-18T16:51:48.117Z,102323.09
2022-12-18T16:54:19.936Z,102094.38
2022-12-18T16:56:48.766Z,102157.97
2022-12-18T16:59:19.308Z,102108.84
2022-12-18T17:01:46.859Z,102305.19
2022-12-18T17:04:14.454Z,102174.97
2022-12-18T17:06:49.853Z,102152.19
2022-12-18T17:09:16.891Z,102169.31
2022-12-18T17:11:44.060Z,102062.78
2022-12-18T17:14:22.150Z,102165.22
2022-12-18T17:19:33.491Z,102251.31
2022-12-18T17:22:02.304Z,102235.88
2022-12-18T17:24:34.828Z,102176.53
2022-12-18T17:27:06.022Z,102240.19
2022-12-18T17:29:37.642Z,102294.94
2022-12-18T17:32:08.802Z,102063.34
2022-12-18T17:34:40.888Z,102188.88
2022-12-18T17:37:08.022Z,102159.44
2022-12-18T17:39:43.451Z,102239.38
2022-12-18T17:42:10.907Z,102064.59
2022-12-18T17:44:52.563Z,102205.06
2022-12-18T17:47:19.640Z,102075.56
2022-12-18T17:49:46.537Z,102072.78
2022-12-18T17:52:16.290Z,102234.22
2022-12-18T17:54:55.234Z,102208.94
2022-12-18T17:57:36.966Z,102114.53
2022-12-18T18:00:08.174Z,102112.50
2022-12-18T18:02:35.050Z,102227.72
2022-12-18T18:05:06.061Z,102131.13
2022-12-18T18:07:50.559Z,102148.09
2022-12-18T18:10:22.222Z,102065.31
2022-12-18T18:12:50.700Z,102199.25
2022-12-18T18:15:28.197Z,102040.09
2022-12-18T18:18:03.537Z,102174.38
2022-12-18T18:20:42.775Z,102170.69
2022-12-18T18:23:10.044Z,102007.78
2022-12-18T18:25:37.199Z,102232.25
2022-12-18T18:28:08.609Z,102228.59
2022-12-18T18:30:38.459Z,102117.59
2022-12-18T18:33:13.724Z,102083.69
2022-12-18T18:35:54.413Z,102125.25
2022-12-18T18:38:24.313Z,102008.00
2022-12-18T18:41:10.603Z,101992.72
2022-12-18T18:49:37.921Z,102178.91
2022-12-18T18:52:09.525Z,102205.34
2022-12-18T18:54:51.927Z,102197.38
2022-12-18T18:57:30.114Z,102193.88
2022-12-18T19:00:01.434Z,102128.75
2022-12-18T19:05:52.567Z,102160.47
2022-12-18T19:08:51.450Z,101979.50
2022-12-18T19:15:33.643Z,101993.44
2022-12-18T19:18:33.575Z,102097.53
2022-12-18T19:21:17.598Z,102189.22
2022-12-18T19:23:55.991Z,102091.72
2022-12-18T19:26:41.378Z,102112.81
2022-12-18T19:29:24.238Z,102132.06
2022-12-18T19:31:58.811Z,102121.63
2022-12-18T19:34:34.688Z,102175.91
2022-12-18T19:37:14.200Z,102176.75
2022-12-18T19:39:47.315Z,102174.94
2022-12-18T19:42:14.488Z,102068.81
2022-12-18T19:44:45.803Z,102047.75
2022-12-18T19:47:12.777Z,102100.34
2022-12-18T19:49:45.952Z,101980.84
2022-12-18T19:52:21.651Z,102122.44
2022-12-18T19:55:14.578Z,102049.56
2022-12-18T19:57:43.124Z,102065.34
2022-12-18T20:00:16.914Z,102064.50
2022-12-18T20:02:48.758Z,101948.84
2022-12-18T20:05:33.354Z,102148.00
2022-12-18T20:08:16.162Z,102023.16
2022-12-18T20:10:49.462Z,102078.72
2022-12-18T20:13:36.793Z,101999.25
2022-12-18T20:18:50.566Z,101990.16
2022-12-18T20:21:28.179Z,102158.44
2022-12-18T20:23:55.181Z,101938.22
2022-12-18T20:26:30.035Z,101974.38
2022-12-18T20:29:05.099Z,102141.81
2022-12-18T20:31:32.221Z,102097.81
2022-12-18T20:34:06.045Z,101931.25
2022-12-18T20:36:39.803Z,102087.69
2022-12-18T20:39:17.791Z,101929.94
2022-12-18T20:41:48.863Z,102020.09
2022-12-18T20:44:22.699Z,101921.13
2022-12-18T20:47:07.446Z,102026.59
2022-12-18T20:49:39.548Z,102015.31
2022-12-18T20:52:29.435Z,101917.75
2022-12-18T20:55:00.345Z,101910.66
2022-12-18T20:57:30.687Z,102014.94
2022-12-18T21:00:04.797Z,101985.94
2022-12-18T21:02:32.116Z,102120.47
2022-12-18T21:04:59.145Z,102027.69
2022-12-18T21:07:27.807Z,102048.72
2022-12-18T21:09:56.519Z,102066.69
2022-12-18T21:12:26.152Z,102075.69
2022-12-18T21:15:01.466Z,102091.50
2022-12-18T21:17:41.118Z,102048.50
2022-12-18T21:20:18.549Z,101974.72
2022-12-18T21:22:54.074Z,101877.78
2022-12-18T21:25:24.268Z,101986.81
2022-12-18T21:27:51.044Z,102048.97
2022-12-18T21:30:17.838Z,102070.13
2022-12-18T21:32:45.819Z,101859.66
2022-12-18T21:35:14.419Z,102031.41
2022-12-18T21:37:47.467Z,102025.72
2022-12-18T21:40:15.783Z,102028.44
2022-12-18T21:42:45.576Z,102080.63
2022-12-18T21:45:12.679Z,101911.19
2022-12-18T21:47:48.052Z,101890.78
2022-12-18T21:50:17.570Z,101926.63
2022-12-18T21:52:50.279Z,101867.31
2022-12-18T21:55:23.264Z,101985.25
2022-12-18T21:58:11.091Z,101852.06
2022-12-18T22:00:48.564Z,101908.06
2022-12-18T22:03:18.646Z,101958.78
2022-12-18T22:06:00.648Z,101855.03
2022-12-18T22:08:43.582Z,102060.84
2022-12-18T22:11:17.027Z,102004.78
2022-12-18T22:13:47.518Z,101915.31
2022-12-18T22:16:18.076Z,102029.44
2022-12-18T22:18:45.119Z,101919.31
2022-12-18T22:21:29.624Z,101851.13
2022-12-18T22:24:00.917Z,101831.59
2022-12-18T22:26:36.504Z,101952.66
2022-12-18T22:29:16.172Z,101931.97
2022-12-18T22:31:50.772Z,101806.75
2022-12-18T22:34:26.168Z,102000.34
2022-12-18T22:36:55.382Z,101986.25
2022-12-18T22:39:27.000Z,101775.69
2022-12-18T22:42:02.990Z,101968.56
2022-12-18T22:44:47.633Z,101854.81
2022-12-18T22:47:27.995Z,101777.69
2022-12-18T22:49:57.102Z,101883.91
2022-12-18T22:52:25.897Z,101848.50
2022-12-18T22:55:00.429Z,101772.16
2022-12-18T22:57:38.175Z,101838.28
2022-12-18T23:00:15.743Z,101945.28
2022-12-18T23:03:00.737Z,101950.00
2022-12-18T23:05:35.386Z,101951.00
2022-12-18T23:08:03.077Z,101816.56
2022-12-18T23:10:36.933Z,101954.63
2022-12-18T23:13:10.916Z,101825.88
2022-12-18T23:15:47.936Z,101764.38
2022-12-18T23:18:26.772Z,101927.47
2022-12-18T23:20:57.964Z,101757.44
2022-12-18T23:23:30.727Z,101729.66
2022-12-18T23:26:08.164Z,101698.84
2022-12-18T23:32:02.583Z,101699.81
2022-12-18T23:34:45.948Z,101890.06
2022-12-18T23:37:49.982Z,101708.66
2022-12-18T23:40:10.149Z,101883.53
2022-12-18T23:42:47.855Z,101709.50
2022-12-18T23:45:28.148Z,101738.63
2022-12-18T23:48:01.389Z,101809.22
2022-12-18T23:50:44.194Z,101888.16
2022-12-18T23:53:14.698Z,101784.78
2022-12-18T23:55:45.997Z,101747.38
2022-12-18T23:58:21.859Z,101634.59
